Time;durP1;ratioP1;P1;durP2;ratioP2;P2;SDS_P1;SDS_P2;PMS_P1;PMS_P2;Temp;Humidity;BMP_temperature;BMP_pressure;BME280_temperature;BME280_humidity;BME280_pressure;Samples;Min_cycle;Max_cycle;Signal;HPM_P1;HPM_P2
2022/07/06 00:00:46;;;;;;;4.78;1.15;;;16.20;57.40;;;;;;5052098;28;20043;-68
2022/07/06 00:03:11;;;;;;;2.78;1.33;;;16.10;57.50;;;;;;5052690;28;20049;-68
2022/07/06 00:05:37;;;;;;;3.50;1.00;;;16.10;57.60;;;;;;5017454;28;20044;-68
2022/07/06 00:08:03;;;;;;;4.95;1.35;;;16.10;57.70;;;;;;5052613;28;20033;-69
2022/07/06 00:10:28;;;;;;;3.00;1.00;;;16.10;57.80;;;;;;5042765;28;20040;-68
2022/07/06 00:12:54;;;;;;;3.33;1.30;;;16.10;57.90;;;;;;5034991;28;20128;-69
2022/07/06 00:15:20;;;;;;;3.55;1.05;;;16.10;58.00;;;;;;5048575;28;20388;-68
2022/07/06 00:17:45;;;;;;;3.88;1.27;;;16.10;58.10;;;;;;5050201;28;20036;-68
2022/07/06 00:20:11;;;;;;;2.88;1.10;;;16.10;58.30;;;;;;5051750;28;20128;-69
2022/07/06 00:22:37;;;;;;;3.30;1.10;;;16.10;58.30;;;;;;5051863;28;20037;-68
2022/07/06 00:25:03;;;;;;;2.25;0.77;;;16.00;58.40;;;;;;5048762;28;20445;-68
2022/07/06 00:27:28;;;;;;;4.03;1.30;;;16.00;58.40;;;;;;5050819;28;20044;-68
2022/07/06 00:29:54;;;;;;;1.30;0.73;;;16.00;58.40;;;;;;5050620;28;20133;-69
2022/07/06 00:32:20;;;;;;;5.10;1.23;;;16.00;58.90;;;;;;5052509;28;20040;-68
2022/07/06 00:34:45;;;;;;;3.33;0.88;;;16.00;58.60;;;;;;5050194;28;20036;-68
2022/07/06 00:37:11;;;;;;;3.45;0.85;;;16.00;58.70;;;;;;5050924;28;20120;-69
2022/07/06 00:39:37;;;;;;;2.50;0.90;;;16.00;58.70;;;;;;5051538;28;20040;-68
2022/07/06 00:42:03;;;;;;;3.42;0.80;;;16.00;58.70;;;;;;5044662;28;20431;-68
2022/07/06 00:44:28;;;;;;;2.03;0.80;;;16.10;58.80;;;;;;5051274;28;20048;-69
2022/07/06 00:46:54;;;;;;;2.20;1.20;;;16.00;58.80;;;;;;5051233;28;20075;-68
2022/07/06 00:52:04;;;;;;;3.40;0.77;;;16.00;58.80;;;;;;5034657;28;20086;-68
2022/07/06 00:54:32;;;;;;;3.60;1.15;;;16.10;58.90;;;;;;5018003;28;20439;-68
2022/07/06 00:56:58;;;;;;;3.50;1.02;;;16.00;59.00;;;;;;5043774;28;20489;-68
2022/07/06 00:59:24;;;;;;;4.22;0.90;;;16.10;59.10;;;;;;5046376;28;20055;-65
2022/07/06 01:01:50;;;;;;;3.47;0.95;;;16.10;59.10;;;;;;5051728;28;20056;-65
2022/07/06 01:04:16;;;;;;;2.78;1.15;;;16.10;59.20;;;;;;5050219;28;20397;-65
2022/07/06 01:06:44;;;;;;;3.22;1.08;;;16.10;59.20;;;;;;5033919;28;20037;-64
2022/07/06 01:09:10;;;;;;;2.30;0.80;;;16.10;59.20;;;;;;5049504;28;20044;-65
2022/07/06 01:11:36;;;;;;;3.50;1.00;;;16.10;59.20;;;;;;5049954;28;20067;-64
2022/07/06 01:14:01;;;;;;;4.18;0.88;;;16.10;59.50;;;;;;5050902;28;20761;-65
2022/07/06 01:16:27;;;;;;;3.88;1.35;;;16.10;59.20;;;;;;5043555;28;20041;-65
2022/07/06 01:18:53;;;;;;;2.65;0.90;;;16.10;59.30;;;;;;5050392;28;20119;-65
2022/07/06 01:21:18;;;;;;;3.58;0.90;;;16.10;59.40;;;;;;5051257;28;20102;-65
2022/07/06 01:23:46;;;;;;;4.57;1.20;;;16.10;59.30;;;;;;5033740;28;20044;-65
2022/07/06 01:26:21;;;;;;;2.42;1.00;;;16.10;59.30;;;;;;5048632;28;20469;-65
2022/07/06 01:28:48;;;;;;;;;;;16.20;59.50;;;;;;5051983;28;20037;-65
2022/07/06 01:31:16;;;;;;;2.70;0.77;;;16.10;58.90;;;;;;5048513;28;19924;-65
2022/07/06 01:33:42;;;;;;;2.08;0.90;;;16.10;59.40;;;;;;5050776;28;20044;-65
2022/07/06 01:36:08;;;;;;;3.47;0.90;;;16.10;59.40;;;;;;5048867;28;20546;-65
2022/07/06 01:38:53;;;;;;;3.17;0.95;;;16.10;59.40;;;;;;5032684;28;20485;-64
2022/07/06 01:41:20;;;;;;;2.95;1.10;;;16.20;59.50;;;;;;5050511;28;20037;-65
2022/07/06 01:43:47;;;;;;;2.55;0.90;;;16.20;59.40;;;;;;5048780;28;20103;-65
2022/07/06 01:46:13;;;;;;;9.43;0.93;;;16.20;59.40;;;;;;5049762;28;20064;-65
2022/07/06 01:48:39;;;;;;;3.17;0.80;;;16.20;59.30;;;;;;5049298;28;20459;-65
2022/07/06 01:51:05;;;;;;;5.40;1.10;;;16.20;59.20;;;;;;5049828;28;20051;-64
2022/07/06 01:53:31;;;;;;;3.88;1.13;;;16.20;59.30;;;;;;5051170;28;20033;-65
2022/07/06 01:55:57;;;;;;;2.63;1.20;;;16.20;59.30;;;;;;5047019;28;20048;-64
2022/07/06 01:58:22;;;;;;;3.25;1.40;;;16.20;59.30;;;;;;5050446;28;20388;-64
2022/07/06 02:00:48;;;;;;;3.85;1.20;;;16.20;59.30;;;;;;5048954;28;20579;-65
2022/07/06 02:03:14;;;;;;;5.32;1.50;;;16.20;59.30;;;;;;5050916;28;20111;-65
2022/07/06 02:05:39;;;;;;;5.57;1.45;;;16.20;59.50;;;;;;5050462;28;20038;-65
2022/07/06 02:08:05;;;;;;;2.67;1.00;;;16.20;59.70;;;;;;5050406;28;20047;-64
2022/07/06 02:10:31;;;;;;;6.20;2.03;;;16.20;59.80;;;;;;5034370;28;20041;-64
2022/07/06 02:12:57;;;;;;;1.55;0.80;;;16.20;59.80;;;;;;5049528;28;20044;-65
2022/07/06 02:15:22;;;;;;;4.70;0.93;;;16.10;59.80;;;;;;5049889;28;20044;-65
2022/07/06 02:17:48;;;;;;;2.53;1.05;;;16.10;60.00;;;;;;5050339;28;20049;-65
2022/07/06 02:20:14;;;;;;;4.15;1.02;;;16.10;60.00;;;;;;5050925;28;20052;-65
2022/07/06 02:22:39;;;;;;;3.35;0.80;;;16.10;60.00;;;;;;5051025;28;20047;-65
2022/07/06 02:25:05;;;;;;;5.50;1.45;;;16.10;60.00;;;;;;5050915;28;20080;-64
2022/07/06 02:27:31;;;;;;;3.70;0.70;;;16.10;60.20;;;;;;5048221;28;20049;-64
2022/07/06 02:29:57;;;;;;;4.15;1.20;;;16.10;60.20;;;;;;5051718;28;20637;-65
2022/07/06 02:32:23;;;;;;;3.95;0.95;;;16.10;60.10;;;;;;5049744;28;20473;-65
2022/07/06 02:34:48;;;;;;;2.47;0.75;;;16.10;60.20;;;;;;5051026;28;20041;-65
2022/07/06 02:37:14;;;;;;;1.83;0.65;;;16.10;60.20;;;;;;5048767;28;20606;-65
2022/07/06 02:39:40;;;;;;;2.90;0.93;;;16.10;60.30;;;;;;5051026;28;20044;-64
2022/07/06 02:42:06;;;;;;;4.05;1.05;;;16.10;60.30;;;;;;5048519;28;20484;-65
2022/07/06 02:44:31;;;;;;;3.53;1.10;;;16.10;60.30;;;;;;5049478;28;20029;-65
2022/07/06 02:46:57;;;;;;;4.82;0.93;;;16.10;60.30;;;;;;5048899;28;20132;-64
2022/07/06 02:49:23;;;;;;;3.80;0.90;;;16.10;60.40;;;;;;5050323;28;20098;-64
2022/07/06 02:51:48;;;;;;;2.83;0.93;;;16.10;60.70;;;;;;5051075;28;20051;-64
2022/07/06 02:54:14;;;;;;;3.60;0.80;;;16.10;60.40;;;;;;5036834;28;20158;-64
2022/07/06 02:56:40;;;;;;;2.78;0.85;;;16.10;60.40;;;;;;5051811;28;20060;-64
2022/07/06 02:59:05;;;;;;;2.95;1.25;;;16.10;60.50;;;;;;5055916;28;20045;-64
2022/07/06 03:01:31;;;;;;;3.78;0.93;;;16.00;60.40;;;;;;5050845;28;20091;-64
2022/07/06 03:03:56;;;;;;;1.45;0.90;;;16.00;60.40;;;;;;5052458;28;20134;-64
2022/07/06 03:06:22;;;;;;;4.15;1.17;;;16.00;60.40;;;;;;5048537;28;20132;-64
2022/07/06 03:08:48;;;;;;;4.15;1.10;;;16.00;60.40;;;;;;5054218;28;20048;-64
2022/07/06 03:11:13;;;;;;;2.35;0.70;;;16.10;60.50;;;;;;5037213;28;20041;-64
2022/07/06 03:13:39;;;;;;;5.45;1.15;;;16.00;60.50;;;;;;5052854;28;20033;-64
2022/07/06 03:16:05;;;;;;;1.52;0.60;;;16.00;60.40;;;;;;5053850;28;20037;-64
2022/07/06 03:18:30;;;;;;;3.53;0.88;;;16.00;60.30;;;;;;5054079;28;20115;-64
2022/07/06 03:20:56;;;;;;;3.30;0.77;;;16.00;60.30;;;;;;5052857;28;20095;-64
2022/07/06 03:23:22;;;;;;;4.22;1.15;;;16.00;60.20;;;;;;5052431;28;20052;-64
2022/07/06 03:25:48;;;;;;;4.18;1.02;;;16.00;60.20;;;;;;5034170;28;20033;-64
2022/07/06 03:28:14;;;;;;;3.40;1.02;;;16.00;60.20;;;;;;5052368;28;20037;-64
2022/07/06 03:30:39;;;;;;;4.85;0.73;;;16.00;60.20;;;;;;5052486;28;20045;-64
2022/07/06 03:33:05;;;;;;;2.22;0.80;;;16.00;60.20;;;;;;5052844;28;20044;-65
2022/07/06 03:35:31;;;;;;;2.55;0.82;;;16.00;60.20;;;;;;5050391;28;20033;-64
2022/07/06 03:37:57;;;;;;;2.15;0.63;;;16.00;60.20;;;;;;5051243;28;20072;-64
2022/07/06 03:40:23;;;;;;;2.25;0.93;;;16.00;60.20;;;;;;5051743;28;20048;-64
2022/07/06 03:42:48;;;;;;;3.13;0.98;;;16.00;60.20;;;;;;5050477;28;20040;-64
2022/07/06 03:45:14;;;;;;;3.47;0.80;;;16.00;60.30;;;;;;5049809;28;20045;-64
2022/07/06 03:47:40;;;;;;;3.20;0.98;;;16.00;60.30;;;;;;5050456;28;20041;-64
2022/07/06 03:50:06;;;;;;;2.63;1.20;;;16.00;60.20;;;;;;5053253;28;20071;-64
2022/07/06 03:52:34;;;;;;;3.72;0.95;;;16.00;60.20;;;;;;5036749;28;20079;-64
2022/07/06 03:54:59;;;;;;;3.50;0.80;;;16.00;60.30;;;;;;5052130;28;20064;-64
2022/07/06 03:57:25;;;;;;;4.15;0.98;;;16.00;60.30;;;;;;5047539;28;20076;-64
2022/07/06 03:59:51;;;;;;;2.80;0.90;;;16.00;60.30;;;;;;5037020;28;20100;-64
2022/07/06 04:02:17;;;;;;;3.42;0.93;;;16.00;60.30;;;;;;5050816;28;20879;-64
2022/07/06 04:04:42;;;;;;;1.88;0.77;;;16.00;60.30;;;;;;5046561;28;20048;-64
2022/07/06 04:07:08;;;;;;;2.47;0.90;;;16.00;60.40;;;;;;5048715;28;20124;-64
2022/07/06 04:09:34;;;;;;;2.40;0.88;;;16.10;60.60;;;;;;5052206;28;20084;-64
2022/07/06 04:11:59;;;;;;;3.80;1.63;;;16.10;60.60;;;;;;5035538;28;20518;-64
2022/07/06 04:14:27;;;;;;;2.30;0.75;;;16.10;60.70;;;;;;5035542;28;21934;-64
2022/07/06 04:16:52;;;;;;;5.78;1.30;;;16.10;60.70;;;;;;5052438;28;20484;-64
2022/07/06 04:19:18;;;;;;;3.33;0.75;;;16.00;60.70;;;;;;5051568;28;20044;-64
2022/07/06 04:21:43;;;;;;;2.83;0.80;;;16.10;60.90;;;;;;5053776;28;20495;-64
2022/07/06 04:24:09;;;;;;;3.35;1.00;;;16.10;60.90;;;;;;5035357;28;20393;-64
2022/07/06 04:26:35;;;;;;;2.00;1.00;;;16.10;60.90;;;;;;5035666;28;20409;-64
2022/07/06 04:29:01;;;;;;;3.08;0.93;;;16.10;61.00;;;;;;5051267;28;20040;-64
2022/07/06 04:31:26;;;;;;;3.75;0.85;;;16.10;61.10;;;;;;5052848;28;20481;-63
2022/07/06 04:33:52;;;;;;;6.22;1.27;;;16.10;61.10;;;;;;5050104;28;20452;-64
2022/07/06 04:36:18;;;;;;;2.28;0.80;;;16.10;61.10;;;;;;5049596;28;20377;-64
2022/07/06 04:38:43;;;;;;;4.85;1.10;;;16.10;61.30;;;;;;5051298;28;20489;-64
2022/07/06 04:41:09;;;;;;;2.28;1.15;;;16.50;61.50;;;;;;5051196;28;20045;-64
2022/07/06 04:43:35;;;;;;;1.98;0.70;;;16.10;61.40;;;;;;5052414;28;20048;-65
2022/07/06 04:46:01;;;;;;;4.50;1.15;;;16.20;61.60;;;;;;5051084;28;20127;-64
2022/07/06 04:48:26;;;;;;;2.88;0.90;;;16.20;61.70;;;;;;5047664;28;20081;-64
2022/07/06 04:50:52;;;;;;;4.55;1.30;;;16.20;61.70;;;;;;5050551;28;20072;-64
2022/07/06 04:53:18;;;;;;;3.05;0.88;;;16.20;61.70;;;;;;5050631;28;20503;-64
2022/07/06 04:55:43;;;;;;;4.90;1.15;;;16.20;62.10;;;;;;5045291;28;20040;-64
2022/07/06 04:58:09;;;;;;;3.70;0.98;;;16.20;61.60;;;;;;5033582;28;20123;-64
2022/07/06 05:00:35;;;;;;;3.13;1.08;;;16.30;61.50;;;;;;5060808;28;20072;-64
2022/07/06 05:03:00;;;;;;;4.38;0.90;;;16.30;61.30;;;;;;5050150;28;20040;-64
2022/07/06 05:05:26;;;;;;;2.55;0.88;;;16.30;61.10;;;;;;5049360;28;20041;-64
2022/07/06 05:07:52;;;;;;;3.88;1.13;;;16.30;61.00;;;;;;5055358;28;20098;-64
2022/07/06 05:10:17;;;;;;;4.20;0.60;;;16.30;60.80;;;;;;5058537;28;20136;-64
2022/07/06 05:12:43;;;;;;;5.20;1.00;;;16.30;60.70;;;;;;5049189;28;20092;-64
2022/07/06 05:15:09;;;;;;;2.20;0.65;;;16.40;60.70;;;;;;5051093;28;20056;-61
2022/07/06 05:17:35;;;;;;;5.40;0.90;;;16.40;60.70;;;;;;5047441;28;20041;-61
2022/07/06 05:20:01;;;;;;;5.40;1.13;;;16.50;60.80;;;;;;5045006;28;20035;-64
2022/07/06 05:22:26;;;;;;;4.13;0.88;;;16.70;60.60;;;;;;5047683;28;20500;-64
2022/07/06 05:24:52;;;;;;;3.00;0.70;;;17.00;60.50;;;;;;5044580;28;20111;-64
2022/07/06 05:27:18;;;;;;;4.40;0.80;;;17.40;59.90;;;;;;5051947;28;20045;-62
2022/07/06 05:29:43;;;;;;;5.45;1.23;;;17.70;59.10;;;;;;5052677;28;20037;-62
2022/07/06 05:32:09;;;;;;;3.97;1.13;;;18.10;58.30;;;;;;5052510;28;20037;-62
2022/07/06 05:34:36;;;;;;;4.65;1.00;;;18.50;57.60;;;;;;5050827;28;20033;-62
2022/07/06 05:37:02;;;;;;;3.45;1.00;;;18.90;56.50;;;;;;5034117;28;20056;-65
2022/07/06 05:39:28;;;;;;;4.22;0.80;;;19.30;55.00;;;;;;5050514;28;20064;-63
2022/07/06 05:41:53;;;;;;;2.50;0.75;;;19.50;54.40;;;;;;5052596;28;20045;-66
2022/07/06 05:44:19;;;;;;;4.78;0.75;;;19.60;53.80;;;;;;5050808;28;20045;-63
2022/07/06 05:46:45;;;;;;;3.28;0.65;;;19.70;53.50;;;;;;5052238;28;20087;-64
2022/07/06 05:51:55;;;;;;;2.67;1.05;;;19.70;53.40;;;;;;5046075;28;20040;-64
2022/07/06 05:54:20;;;;;;;4.57;0.82;;;19.70;53.30;;;;;;5050416;28;20469;-63
2022/07/06 05:56:46;;;;;;;3.30;0.75;;;19.60;53.10;;;;;;5051212;28;20073;-63
2022/07/06 05:59:12;;;;;;;1.63;0.40;;;19.60;53.00;;;;;;5050577;28;20443;-62
2022/07/06 06:01:37;;;;;;;3.30;0.70;;;19.50;52.90;;;;;;5052544;28;20037;-63
2022/07/06 06:04:04;;;;;;;4.28;0.60;;;19.40;52.90;;;;;;5049544;28;20043;-63
2022/07/06 06:06:31;;;;;;;1.75;0.73;;;19.30;53.00;;;;;;5047108;28;20037;-62
2022/07/06 06:08:56;;;;;;;2.13;0.57;;;19.20;53.20;;;;;;5045019;28;20034;-62
2022/07/06 06:11:22;;;;;;;4.03;0.98;;;19.10;53.70;;;;;;5049160;28;20059;-62
2022/07/06 06:13:48;;;;;;;2.55;0.50;;;19.10;54.10;;;;;;5051711;28;20052;-62
2022/07/06 06:16:15;;;;;;;3.35;0.65;;;19.00;54.40;;;;;;5051758;28;20396;-62
2022/07/06 06:18:41;;;;;;;3.13;0.80;;;18.90;54.70;;;;;;5052251;28;20033;-62
2022/07/06 06:21:07;;;;;;;3.33;0.60;;;18.80;54.90;;;;;;5052138;28;20052;-63
2022/07/06 06:23:32;;;;;;;3.22;0.80;;;18.80;55.10;;;;;;5051178;28;20392;-63
2022/07/06 06:25:58;;;;;;;2.15;0.50;;;18.70;55.20;;;;;;5051014;28;20107;-63
2022/07/06 06:28:24;;;;;;;2.65;0.98;;;18.60;55.20;;;;;;5054838;28;20045;-63
2022/07/06 06:30:49;;;;;;;2.30;0.63;;;18.50;55.40;;;;;;5055376;28;20480;-63
2022/07/06 06:33:19;;;;;;;3.47;0.63;;;18.40;55.40;;;;;;5056556;28;20443;-63
2022/07/06 06:35:52;;;;;;;2.22;0.70;;;18.40;55.40;;;;;;5054470;28;20116;-63
2022/07/06 06:38:21;;;;;;;2.47;0.63;;;18.20;55.40;;;;;;5056150;28;20060;-64
2022/07/06 06:40:47;;;;;;;4.60;0.77;;;18.20;55.70;;;;;;5056024;28;20287;-63
2022/07/06 06:43:13;;;;;;;4.07;0.90;;;18.10;55.80;;;;;;5055043;28;20059;-63
2022/07/06 06:45:39;;;;;;;2.63;0.60;;;18.00;56.40;;;;;;5055067;28;20037;-64
2022/07/06 06:48:04;;;;;;;3.78;0.70;;;17.90;56.20;;;;;;5055652;28;20045;-63
2022/07/06 06:50:30;;;;;;;3.33;0.60;;;17.90;56.60;;;;;;5054569;28;20043;-63
2022/07/06 06:52:56;;;;;;;2.90;0.70;;;17.80;57.20;;;;;;5056213;28;20043;-63
2022/07/06 06:55:21;;;;;;;2.00;0.63;;;17.80;56.90;;;;;;5054664;28;20126;-63
2022/07/06 06:57:47;;;;;;;1.92;0.40;;;17.70;57.30;;;;;;5054525;28;20127;-64
2022/07/06 07:00:13;;;;;;;3.95;0.60;;;17.70;56.90;;;;;;5054448;28;20041;-68
2022/07/06 07:02:40;;;;;;;4.57;0.80;;;17.70;57.00;;;;;;5054721;28;20480;-67
2022/07/06 07:05:06;;;;;;;2.38;0.60;;;17.70;57.10;;;;;;5054800;28;20083;-68
2022/07/06 07:07:32;;;;;;;4.40;0.77;;;17.70;57.30;;;;;;5055660;28;20049;-68
2022/07/06 07:09:59;;;;;;;1.92;0.70;;;17.80;57.70;;;;;;5054710;28;20388;-67
2022/07/06 07:12:24;;;;;;;2.50;0.57;;;17.90;57.40;;;;;;5043810;28;20076;-68
2022/07/06 07:14:50;;;;;;;1.45;0.30;;;18.00;56.70;;;;;;5035895;28;20096;-68
2022/07/06 07:17:16;;;;;;;3.47;0.90;;;18.10;56.60;;;;;;5054103;28;20128;-68
2022/07/06 07:19:42;;;;;;;3.30;0.57;;;18.30;57.30;;;;;;5054470;28;20485;-68
2022/07/06 07:22:08;;;;;;;3.33;0.60;;;18.40;56.70;;;;;;5054203;28;20041;-68
2022/07/06 07:24:33;;;;;;;2.17;0.45;;;18.70;56.10;;;;;;5055580;28;20463;-69
2022/07/06 07:26:59;;;;;;;1.90;0.63;;;18.90;55.40;;;;;;5054071;28;20052;-68
2022/07/06 07:29:25;;;;;;;2.75;0.50;;;19.10;55.00;;;;;;5054259;28;20404;-68
2022/07/06 07:31:50;;;;;;;3.30;1.10;;;19.30;54.80;;;;;;5055093;28;20041;-68
2022/07/06 07:34:17;;;;;;;2.92;0.80;;;19.40;54.70;;;;;;5055377;28;20037;-68
2022/07/06 07:36:42;;;;;;;3.33;0.80;;;19.70;54.30;;;;;;5053589;28;20053;-68
2022/07/06 07:39:08;;;;;;;1.73;0.40;;;19.80;53.80;;;;;;5053914;28;20111;-67
2022/07/06 07:41:34;;;;;;;2.22;0.50;;;20.00;52.70;;;;;;5054816;28;20045;-68
2022/07/06 07:44:00;;;;;;;3.47;0.50;;;20.10;52.40;;;;;;5053926;28;20048;-68
2022/07/06 07:46:25;;;;;;;2.72;0.70;;;20.30;52.10;;;;;;5053802;28;20033;-67
2022/07/06 07:48:51;;;;;;;2.45;0.70;;;20.40;51.60;;;;;;5054022;28;20151;-67
2022/07/06 07:51:18;;;;;;;3.25;0.47;;;20.70;51.40;;;;;;5054981;28;20073;-67
2022/07/06 07:53:44;;;;;;;3.17;0.50;;;20.90;51.10;;;;;;5053668;28;20098;-67
2022/07/06 07:56:10;;;;;;;2.85;0.52;;;21.10;50.60;;;;;;5054567;28;20066;-68
2022/07/06 07:58:35;;;;;;;2.53;0.40;;;21.30;50.10;;;;;;5053828;28;20047;-68
2022/07/06 08:01:01;;;;;;;2.08;0.60;;;21.40;49.80;;;;;;5037020;28;20049;-69
2022/07/06 08:03:27;;;;;;;2.97;0.43;;;21.50;49.20;;;;;;5037022;28;20391;-69
2022/07/06 08:05:52;;;;;;;5.45;1.23;;;21.50;48.60;;;;;;5054474;28;20124;-68
2022/07/06 08:08:18;;;;;;;1.33;0.20;;;21.50;48.40;;;;;;5053494;28;20116;-68
2022/07/06 08:10:44;;;;;;;3.88;0.60;;;21.50;48.70;;;;;;5054648;28;20033;-68
2022/07/06 08:13:10;;;;;;;3.17;0.80;;;21.50;49.00;;;;;;5053160;28;20051;-67
2022/07/06 08:15:37;;;;;;;2.85;0.50;;;21.40;48.00;;;;;;5053490;28;20040;-66
2022/07/06 08:18:03;;;;;;;5.25;0.75;;;21.30;48.00;;;;;;5054226;28;20076;-68
2022/07/06 08:20:29;;;;;;;3.10;0.57;;;21.20;48.50;;;;;;5053245;28;20045;-69
2022/07/06 08:22:55;;;;;;;2.58;0.40;;;21.10;49.00;;;;;;5053762;28;20043;-66
2022/07/06 08:25:21;;;;;;;2.60;0.40;;;21.10;49.10;;;;;;5054431;28;20048;-66
2022/07/06 08:27:47;;;;;;;3.25;0.60;;;21.10;49.50;;;;;;5053055;28;20404;-68
2022/07/06 08:30:14;;;;;;;8.93;1.02;;;21.20;49.00;;;;;;5052977;28;20541;-68
2022/07/06 08:32:41;;;;;;;4.00;0.47;;;21.30;48.90;;;;;;5053247;28;20068;-68
2022/07/06 08:35:07;;;;;;;4.28;0.40;;;21.40;48.40;;;;;;5052816;28;20041;-67
2022/07/06 08:37:33;;;;;;;2.33;0.55;;;21.50;47.60;;;;;;5052837;28;20123;-68
2022/07/06 08:39:59;;;;;;;1.60;0.43;;;21.50;47.10;;;;;;5052724;28;20135;-67
2022/07/06 08:42:30;;;;;;;2.20;0.50;;;21.50;47.10;;;;;;5052817;28;20071;-68
2022/07/06 08:45:00;;;;;;;2.50;0.45;;;21.60;47.10;;;;;;5053944;28;20067;-68
2022/07/06 08:47:27;;;;;;;2.45;0.52;;;21.60;46.20;;;;;;5042552;28;20044;-67
2022/07/06 08:49:53;;;;;;;3.58;0.50;;;21.70;45.70;;;;;;5052441;28;20240;-67
2022/07/06 08:52:19;;;;;;;1.33;0.35;;;21.80;45.60;;;;;;5052533;28;20095;-67
2022/07/06 08:54:45;;;;;;;2.05;0.22;;;22.00;45.70;;;;;;5053966;28;20366;-68
2022/07/06 08:57:11;;;;;;;1.00;0.20;;;22.10;45.40;;;;;;5053477;28;20037;-67
2022/07/06 08:59:38;;;;;;;2.70;0.40;;;22.20;44.70;;;;;;5052615;28;20044;-68
2022/07/06 09:02:04;;;;;;;1.15;0.40;;;22.40;44.30;;;;;;5052337;28;20080;-69
2022/07/06 09:04:32;;;;;;;3.30;0.73;;;22.50;43.80;;;;;;5053756;28;20079;-68
2022/07/06 09:06:57;;;;;;;2.45;0.50;;;22.60;43.90;;;;;;5051730;28;20064;-68
2022/07/06 09:09:24;;;;;;;2.33;0.40;;;22.80;43.20;;;;;;5051711;28;20037;-68
2022/07/06 09:11:50;;;;;;;3.17;0.63;;;22.90;43.30;;;;;;5053378;28;20044;-68
2022/07/06 09:14:17;;;;;;;1.80;0.40;;;22.90;43.50;;;;;;5052361;28;20049;-69
2022/07/06 09:16:42;;;;;;;2.33;0.38;;;23.00;44.00;;;;;;5052171;28;20055;-68
2022/07/06 09:19:11;;;;;;;3.45;0.80;;;23.10;44.10;;;;;;5050751;28;20028;-68
2022/07/06 09:21:37;;;;;;;2.50;0.30;;;23.10;43.60;;;;;;5051443;28;20049;-68
2022/07/06 09:24:07;;;;;;;9.60;0.57;;;23.20;43.50;;;;;;5051472;28;20064;-68
2022/07/06 09:26:33;;;;;;;3.58;0.50;;;23.30;43.40;;;;;;5051785;28;20136;-68
2022/07/06 09:29:00;;;;;;;1.98;0.50;;;23.40;43.40;;;;;;5051879;28;20485;-68
2022/07/06 09:31:26;;;;;;;4.28;0.75;;;23.60;43.10;;;;;;5052126;28;20037;-69
2022/07/06 09:34:02;;;;;;;2.40;0.40;;;23.70;42.80;;;;;;5053030;28;20037;-69
2022/07/06 09:36:44;;;;;;;3.35;0.47;;;23.70;42.20;;;;;;5052007;28;20121;-68
2022/07/06 09:39:22;;;;;;;2.78;0.60;;;23.60;42.10;;;;;;5051326;28;20060;-68
2022/07/06 09:41:49;;;;;;;2.13;0.50;;;23.50;42.20;;;;;;5033793;28;20118;-68
2022/07/06 09:44:20;;;;;;;4.20;0.60;;;23.30;42.30;;;;;;5047848;28;20497;-68
2022/07/06 09:46:47;;;;;;;2.78;1.00;;;23.20;42.30;;;;;;5054546;28;20053;-68
2022/07/06 09:49:17;;;;;;;1.42;0.40;;;23.10;42.40;;;;;;5055692;28;20410;-68
2022/07/06 09:51:46;;;;;;;1.38;0.50;;;23.00;42.60;;;;;;5061808;28;20041;-68
2022/07/06 09:54:12;;;;;;;2.13;0.60;;;22.80;42.60;;;;;;5062242;28;20373;-68
2022/07/06 09:56:42;;;;;;;2.45;0.60;;;22.70;42.70;;;;;;5061022;28;20043;-68
2022/07/06 09:59:09;;;;;;;1.80;0.30;;;22.50;43.10;;;;;;5063045;28;20040;-68
2022/07/06 10:01:37;;;;;;;1.73;0.40;;;22.50;43.30;;;;;;5063173;28;20045;-68
2022/07/06 10:04:04;;;;;;;3.20;0.57;;;22.40;43.50;;;;;;5057439;28;20052;-67
2022/07/06 10:06:29;;;;;;;2.58;0.40;;;22.40;43.20;;;;;;5061560;28;20052;-68
2022/07/06 10:08:58;;;;;;;2.05;0.40;;;22.40;43.10;;;;;;5062770;28;20059;-68
2022/07/06 10:11:25;;;;;;;1.20;0.47;;;22.40;43.40;;;;;;5058529;28;20112;-67
2022/07/06 10:13:56;;;;;;;2.70;0.40;;;22.40;43.40;;;;;;5043168;28;20064;-69
2022/07/06 10:16:24;;;;;;;2.13;0.28;;;22.50;43.60;;;;;;5034158;28;20607;-68
2022/07/06 10:18:53;;;;;;;1.35;0.30;;;22.60;43.60;;;;;;5044730;28;20049;-67
2022/07/06 10:21:21;;;;;;;2.83;0.63;;;22.70;43.50;;;;;;5032401;28;20033;-68
2022/07/06 10:23:48;;;;;;;1.42;0.73;;;22.80;43.20;;;;;;5033635;28;20048;-68
2022/07/06 10:26:14;;;;;;;2.83;0.60;;;22.90;42.60;;;;;;5052042;28;20037;-68
2022/07/06 10:28:42;;;;;;;2.45;0.40;;;22.80;42.90;;;;;;5051173;28;20102;-68
2022/07/06 10:31:08;;;;;;;1.25;0.30;;;22.80;43.60;;;;;;5034450;28;20071;-69
2022/07/06 10:33:36;;;;;;;3.25;0.45;;;22.80;43.50;;;;;;5036445;28;20127;-68
2022/07/06 10:36:02;;;;;;;1.45;0.30;;;22.90;43.20;;;;;;5051362;28;20374;-68
2022/07/06 10:38:32;;;;;;;1.58;0.40;;;22.90;43.50;;;;;;5049657;28;20057;-68
2022/07/06 10:41:03;;;;;;;3.72;0.50;;;22.90;43.50;;;;;;5049887;28;20142;-68
2022/07/06 10:43:37;;;;;;;2.70;0.40;;;23.00;43.50;;;;;;5051028;28;20053;-68
2022/07/06 10:46:08;;;;;;;1.65;0.30;;;23.10;43.40;;;;;;5050038;28;20059;-67
2022/07/06 10:48:44;;;;;;;2.17;0.38;;;23.20;43.10;;;;;;5050795;28;20037;-67
2022/07/06 10:51:24;;;;;;;1.17;0.28;;;23.20;43.10;;;;;;5040986;28;20053;-68
2022/07/06 10:54:04;;;;;;;1.77;0.40;;;23.20;43.10;;;;;;5042509;28;20119;-68
2022/07/06 10:56:43;;;;;;;4.75;0.60;;;23.20;43.00;;;;;;5051723;28;20136;-68
2022/07/06 10:59:19;;;;;;;1.60;0.40;;;23.20;43.20;;;;;;5046990;28;20033;-67
2022/07/06 11:02:16;;;;;;;1.92;0.40;;;23.20;43.10;;;;;;5031348;28;20064;-67
2022/07/06 11:04:46;;;;;;;3.03;0.85;;;23.20;42.80;;;;;;5037378;28;20045;-68
2022/07/06 11:07:19;;;;;;;3.40;0.60;;;23.20;43.00;;;;;;5031141;28;20037;-68
2022/07/06 11:09:56;;;;;;;3.97;0.60;;;23.30;42.40;;;;;;5038183;28;20508;-68
2022/07/06 11:12:22;;;;;;;3.00;0.50;;;23.30;41.80;;;;;;5034107;28;20107;-68
2022/07/06 11:14:50;;;;;;;3.50;0.65;;;23.30;42.10;;;;;;5051995;28;20033;-69
2022/07/06 11:17:17;;;;;;;4.03;0.60;;;23.30;42.40;;;;;;5037459;28;20038;-68
2022/07/06 11:20:11;;;;;;;2.47;0.60;;;23.30;42.40;;;;;;5050621;28;20045;-68
2022/07/06 11:22:38;;;;;;;4.18;0.70;;;23.30;42.80;;;;;;5050944;28;20106;-70
2022/07/06 11:25:05;;;;;;;2.42;0.50;;;23.30;42.30;;;;;;5051291;28;20555;-69
2022/07/06 11:27:33;;;;;;;2.17;0.50;;;23.30;41.90;;;;;;5036299;28;20120;-69
2022/07/06 11:29:59;;;;;;;2.22;0.50;;;23.40;42.00;;;;;;5052794;28;20072;-69
2022/07/06 11:32:26;;;;;;;1.33;0.30;;;23.40;42.00;;;;;;5054110;28;20044;-69
2022/07/06 11:34:52;;;;;;;3.83;0.43;;;23.50;42.00;;;;;;5049994;28;20044;-69
2022/07/06 11:37:20;;;;;;;1.77;0.40;;;23.60;42.10;;;;;;5054250;28;20404;-69
2022/07/06 11:39:47;;;;;;;2.72;0.57;;;23.60;42.40;;;;;;5054537;28;20053;-69
2022/07/06 11:42:15;;;;;;;2.40;0.40;;;23.70;42.90;;;;;;5053764;28;20131;-69
2022/07/06 11:44:41;;;;;;;4.70;0.50;;;23.80;42.50;;;;;;5053673;28;20041;-68
2022/07/06 11:47:08;;;;;;;1.92;0.40;;;23.90;41.60;;;;;;5054803;28;20401;-69
2022/07/06 11:49:36;;;;;;;1.50;0.32;;;24.00;41.40;;;;;;5054828;28;20094;-69
2022/07/06 11:52:10;;;;;;;2.38;0.55;;;24.10;41.10;;;;;;5054067;28;20052;-69
2022/07/06 11:54:36;;;;;;;2.13;0.50;;;24.20;40.80;;;;;;5051743;28;20488;-69
2022/07/06 11:57:03;;;;;;;3.53;0.68;;;24.20;40.90;;;;;;5053795;28;20080;-69
2022/07/06 11:59:37;;;;;;;2.55;0.60;;;24.30;40.10;;;;;;5053195;28;20045;-69
2022/07/06 12:02:11;;;;;;;1.65;0.40;;;24.30;39.40;;;;;;5063358;28;20048;-68
2022/07/06 12:04:42;;;;;;;2.15;0.63;;;24.40;38.90;;;;;;5063557;28;20038;-68
2022/07/06 12:07:11;;;;;;;2.58;0.40;;;24.40;39.10;;;;;;5061595;28;20569;-68
2022/07/06 12:09:40;;;;;;;2.20;0.50;;;24.50;39.20;;;;;;5063942;28;20484;-68
2022/07/06 12:12:08;;;;;;;4.00;0.90;;;24.60;39.30;;;;;;5064619;28;20044;-69
2022/07/06 12:14:35;;;;;;;2.65;0.70;;;24.70;38.80;;;;;;5063817;28;20064;-68
2022/07/06 12:17:08;;;;;;;2.28;0.65;;;24.80;38.00;;;;;;5065247;28;20032;-68
2022/07/06 12:19:35;;;;;;;1.17;0.40;;;24.80;37.60;;;;;;5064658;28;20045;-68
2022/07/06 12:22:02;;;;;;;2.58;0.45;;;24.90;38.00;;;;;;5047246;28;20130;-68
2022/07/06 12:24:33;;;;;;;1.30;0.40;;;24.90;37.90;;;;;;5062028;28;20055;-68
2022/07/06 12:27:16;;;;;;;2.92;0.50;;;24.90;37.90;;;;;;5063664;28;20114;-68
2022/07/06 12:29:42;;;;;;;2.95;0.60;;;25.00;37.70;;;;;;5063662;28;20040;-68
2022/07/06 12:32:18;;;;;;;1.48;0.40;;;25.00;37.80;;;;;;5052688;28;20048;-66
2022/07/06 12:34:44;;;;;;;4.18;0.60;;;25.10;38.00;;;;;;5050614;28;20115;-68
2022/07/06 12:37:12;;;;;;;2.40;0.47;;;25.20;38.10;;;;;;5038346;28;20517;-68
2022/07/06 12:39:49;;;;;;;2.70;0.50;;;25.30;38.40;;;;;;5044910;28;20053;-67
2022/07/06 12:42:17;;;;;;;3.58;0.75;;;25.40;37.90;;;;;;5048345;28;20171;-68
2022/07/06 12:44:51;;;;;;;1.95;0.40;;;25.40;37.60;;;;;;5054125;28;20489;-68
2022/07/06 12:47:24;;;;;;;3.15;0.82;;;25.40;37.70;;;;;;5053547;28;20037;-68
2022/07/06 12:50:06;;;;;;;1.95;0.65;;;25.40;37.80;;;;;;5051009;28;20025;-68
2022/07/06 12:52:32;;;;;;;3.88;0.55;;;25.50;38.20;;;;;;5052556;28;20048;-68